sensor_id;sensor_type;location;lat;lon;timestamp;pressure;altitude;pressure_sealevel;temperature;humidity
16190;BME280;41754;51.498;7.540;2023-02-12T00:00:56;102507.47;;;10.16;64.49
16190;BME280;41754;51.498;7.540;2023-02-12T00:03:24;102509.81;;;10.07;65.48
16190;BME280;41754;51.498;7.540;2023-02-12T00:05:52;102499.69;;;10.51;64.11
16190;BME280;41754;51.498;7.540;2023-02-12T00:08:20;102508.47;;;10.48;64.06
16190;BME280;41754;51.498;7.540;2023-02-12T00:10:48;102502.84;;;10.60;63.62
16190;BME280;41754;51.498;7.540;2023-02-12T00:13:16;102499.94;;;10.50;63.41
16190;BME280;41754;51.498;7.540;2023-02-12T00:15:45;102498.16;;;10.61;63.15
16190;BME280;41754;51.498;7.540;2023-02-12T00:18:13;102491.50;;;10.78;62.61
16190;BME280;41754;51.498;7.540;2023-02-12T00:20:41;102491.47;;;10.30;63.96
16190;BME280;41754;51.498;7.540;2023-02-12T00:23:09;102494.41;;;9.68;66.64
16190;BME280;41754;51.498;7.540;2023-02-12T00:25:40;102491.81;;;10.60;64.42
16190;BME280;41754;51.498;7.540;2023-02-12T00:28:08;102497.16;;;10.06;65.38
16190;BME280;41754;51.498;7.540;2023-02-12T00:30:36;102499.00;;;10.01;66.78
16190;BME280;41754;51.498;7.540;2023-02-12T00:33:05;102499.56;;;10.19;66.07
16190;BME280;41754;51.498;7.540;2023-02-12T00:35:33;102497.69;;;9.86;67.45
16190;BME280;41754;51.498;7.540;2023-02-12T00:38:01;102496.41;;;9.55;68.48
16190;BME280;41754;51.498;7.540;2023-02-12T00:40:29;102496.88;;;9.52;68.86
16190;BME280;41754;51.498;7.540;2023-02-12T00:42:57;102496.28;;;9.50;68.97
16190;BME280;41754;51.498;7.540;2023-02-12T00:45:24;102498.13;;;9.61;68.26
16190;BME280;41754;51.498;7.540;2023-02-12T00:47:52;102494.41;;;10.06;67.65
16190;BME280;41754;51.498;7.540;2023-02-12T00:50:21;102498.34;;;9.93;66.57
16190;BME280;41754;51.498;7.540;2023-02-12T00:52:49;102501.22;;;9.48;68.19
16190;BME280;41754;51.498;7.540;2023-02-12T00:55:17;102499.69;;;9.91;67.75
16190;BME280;41754;51.498;7.540;2023-02-12T00:57:45;102497.22;;;9.73;67.35
16190;BME280;41754;51.498;7.540;2023-02-12T01:00:14;102494.41;;;9.68;67.29
16190;BME280;41754;51.498;7.540;2023-02-12T01:02:42;102505.09;;;9.86;67.39
16190;BME280;41754;51.498;7.540;2023-02-12T01:05:10;102506.03;;;9.91;67.05
16190;BME280;41754;51.498;7.540;2023-02-12T01:07:39;102507.84;;;10.03;67.03
16190;BME280;41754;51.498;7.540;2023-02-12T01:10:08;102500.16;;;10.05;66.98
16190;BME280;41754;51.498;7.540;2023-02-12T01:12:36;102503.91;;;10.15;66.38
16190;BME280;41754;51.498;7.540;2023-02-12T01:15:04;102498.66;;;10.79;64.59
16190;BME280;41754;51.498;7.540;2023-02-12T01:17:32;102499.94;;;10.50;63.86
16190;BME280;41754;51.498;7.540;2023-02-12T01:19:59;102495.78;;;10.26;65.41
16190;BME280;41754;51.498;7.540;2023-02-12T01:22:27;102501.50;;;10.02;66.04
16190;BME280;41754;51.498;7.540;2023-02-12T01:24:57;102498.13;;;10.17;66.14
16190;BME280;41754;51.498;7.540;2023-02-12T01:27:24;102491.97;;;10.10;65.49
16190;BME280;41754;51.498;7.540;2023-02-12T01:29:54;102486.00;;;9.96;66.03
16190;BME280;41754;51.498;7.540;2023-02-12T01:32:22;102491.66;;;10.45;65.11
16190;BME280;41754;51.498;7.540;2023-02-12T01:34:51;102488.50;;;9.98;66.18
16190;BME280;41754;51.498;7.540;2023-02-12T01:37:20;102494.31;;;10.01;65.95
16190;BME280;41754;51.498;7.540;2023-02-12T01:39:48;102490.94;;;9.94;66.25
16190;BME280;41754;51.498;7.540;2023-02-12T01:42:17;102491.81;;;10.60;65.04
16190;BME280;41754;51.498;7.540;2023-02-12T01:48:00;102496.88;;;10.68;63.50
16190;BME280;41754;51.498;7.540;2023-02-12T01:50:28;102495.91;;;10.36;63.68
16190;BME280;41754;51.498;7.540;2023-02-12T01:52:57;102495.66;;;10.15;65.09
16190;BME280;41754;51.498;7.540;2023-02-12T01:55:25;102494.44;;;10.50;64.04
16190;BME280;41754;51.498;7.540;2023-02-12T01:57:54;102487.34;;;10.54;64.06
16190;BME280;41754;51.498;7.540;2023-02-12T02:00:23;102480.44;;;10.30;63.74
16190;BME280;41754;51.498;7.540;2023-02-12T02:02:54;102486.56;;;10.37;64.18
16190;BME280;41754;51.498;7.540;2023-02-12T02:05:27;102481.50;;;10.50;63.66
16190;BME280;41754;51.498;7.540;2023-02-12T02:07:58;102478.16;;;10.43;63.33
16190;BME280;41754;51.498;7.540;2023-02-12T02:10:28;102482.16;;;10.58;63.65
16190;BME280;41754;51.498;7.540;2023-02-12T02:12:57;102484.38;;;10.82;62.76
16190;BME280;41754;51.498;7.540;2023-02-12T02:15:46;102488.09;;;10.71;63.32
16190;BME280;41754;51.498;7.540;2023-02-12T02:18:22;102485.44;;;10.55;63.41
16190;BME280;41754;51.498;7.540;2023-02-12T02:21:12;102484.47;;;10.22;63.62
16190;BME280;41754;51.498;7.540;2023-02-12T02:23:58;102475.56;;;10.37;63.63
16190;BME280;41754;51.498;7.540;2023-02-12T02:26:48;102482.38;;;9.90;65.50
16190;BME280;41754;51.498;7.540;2023-02-12T02:30:06;102485.84;;;10.03;66.29
16190;BME280;41754;51.498;7.540;2023-02-12T02:32:40;102486.53;;;9.93;65.81
16190;BME280;41754;51.498;7.540;2023-02-12T02:35:13;102477.31;;;10.65;64.26
16190;BME280;41754;51.498;7.540;2023-02-12T02:37:47;102470.16;;;10.03;65.39
16190;BME280;41754;51.498;7.540;2023-02-12T02:40:18;102461.63;;;10.21;65.30
16190;BME280;41754;51.498;7.540;2023-02-12T02:42:51;102458.94;;;10.27;65.50
16190;BME280;41754;51.498;7.540;2023-02-12T02:45:26;102459.88;;;10.37;64.66
16190;BME280;41754;51.498;7.540;2023-02-12T02:47:57;102459.44;;;10.45;64.22
16190;BME280;41754;51.498;7.540;2023-02-12T02:50:28;102458.25;;;10.63;63.29
16190;BME280;41754;51.498;7.540;2023-02-12T02:53:00;102462.34;;;10.82;63.26
16190;BME280;41754;51.498;7.540;2023-02-12T02:55:32;102461.59;;;10.65;62.75
16190;BME280;41754;51.498;7.540;2023-02-12T02:58:08;102462.44;;;10.66;62.98
16190;BME280;41754;51.498;7.540;2023-02-12T03:00:42;102456.56;;;10.57;63.12
16190;BME280;41754;51.498;7.540;2023-02-12T03:03:17;102463.31;;;10.71;62.79
16190;BME280;41754;51.498;7.540;2023-02-12T03:05:51;102466.72;;;10.78;62.55
16190;BME280;41754;51.498;7.540;2023-02-12T03:08:24;102462.00;;;10.52;63.01
16190;BME280;41754;51.498;7.540;2023-02-12T03:10:56;102461.69;;;10.75;62.73
16190;BME280;41754;51.498;7.540;2023-02-12T03:13:29;102454.19;;;10.44;63.82
16190;BME280;41754;51.498;7.540;2023-02-12T03:16:03;102463.41;;;10.33;63.89
16190;BME280;41754;51.498;7.540;2023-02-12T03:18:38;102458.78;;;10.60;63.59
16190;BME280;41754;51.498;7.540;2023-02-12T03:21:11;102451.38;;;10.39;63.13
16190;BME280;41754;51.498;7.540;2023-02-12T03:23:45;102455.97;;;10.55;63.54
16190;BME280;41754;51.498;7.540;2023-02-12T03:26:18;102452.81;;;10.19;64.51
16190;BME280;41754;51.498;7.540;2023-02-12T03:28:47;102455.91;;;10.50;63.37
16190;BME280;41754;51.498;7.540;2023-02-12T03:31:23;102457.06;;;10.54;63.49
16190;BME280;41754;51.498;7.540;2023-02-12T03:34:03;102462.63;;;10.37;63.99
16190;BME280;41754;51.498;7.540;2023-02-12T03:36:37;102462.53;;;10.10;64.49
16190;BME280;41754;51.498;7.540;2023-02-12T03:39:10;102466.66;;;10.51;64.03
16190;BME280;41754;51.498;7.540;2023-02-12T03:41:43;102463.97;;;10.57;63.59
16190;BME280;41754;51.498;7.540;2023-02-12T03:44:17;102466.22;;;10.38;63.64
16190;BME280;41754;51.498;7.540;2023-02-12T03:46:56;102465.53;;;10.47;63.66
16190;BME280;41754;51.498;7.540;2023-02-12T03:49:28;102462.63;;;10.59;63.43
16190;BME280;41754;51.498;7.540;2023-02-12T03:51:58;102472.63;;;10.65;62.92
16190;BME280;41754;51.498;7.540;2023-02-12T03:54:26;102468.78;;;10.22;62.77
16190;BME280;41754;51.498;7.540;2023-02-12T03:56:57;102480.91;;;10.05;64.69
16190;BME280;41754;51.498;7.540;2023-02-12T03:59:26;102479.63;;;9.74;65.53
16190;BME280;41754;51.498;7.540;2023-02-12T04:01:57;102476.97;;;9.79;66.42
16190;BME280;41754;51.498;7.540;2023-02-12T04:04:26;102478.47;;;10.08;65.96
16190;BME280;41754;51.498;7.540;2023-02-12T04:06:55;102478.44;;;10.47;63.92
16190;BME280;41754;51.498;7.540;2023-02-12T04:09:24;102474.47;;;10.16;64.64
16190;BME280;41754;51.498;7.540;2023-02-12T04:12:01;102479.47;;;9.63;65.11
16190;BME280;41754;51.498;7.540;2023-02-12T04:14:40;102481.91;;;10.37;64.87
16190;BME280;41754;51.498;7.540;2023-02-12T04:17:19;102492.75;;;9.88;64.95
16190;BME280;41754;51.498;7.540;2023-02-12T04:19:57;102488.19;;;10.33;63.79
16190;BME280;41754;51.498;7.540;2023-02-12T04:22:40;102481.44;;;10.67;62.76
16190;BME280;41754;51.498;7.540;2023-02-12T04:25:20;102487.53;;;10.26;63.83
16190;BME280;41754;51.498;7.540;2023-02-12T04:27:56;102484.75;;;10.42;63.43
16190;BME280;41754;51.498;7.540;2023-02-12T04:30:29;102491.38;;;10.25;63.41
16190;BME280;41754;51.498;7.540;2023-02-12T04:33:02;102494.91;;;10.42;63.72
16190;BME280;41754;51.498;7.540;2023-02-12T04:35:33;102506.56;;;10.10;63.94
16190;BME280;41754;51.498;7.540;2023-02-12T04:38:06;102504.38;;;10.12;64.27
16190;BME280;41754;51.498;7.540;2023-02-12T04:40:38;102500.47;;;10.47;63.38
16190;BME280;41754;51.498;7.540;2023-02-12T04:43:06;102504.38;;;10.51;62.88
16190;BME280;41754;51.498;7.540;2023-02-12T04:45:36;102509.63;;;10.31;63.12
16190;BME280;41754;51.498;7.540;2023-02-12T04:48:05;102511.03;;;10.55;62.90
16190;BME280;41754;51.498;7.540;2023-02-12T04:50:38;102521.72;;;10.73;61.91
16190;BME280;41754;51.498;7.540;2023-02-12T04:53:07;102516.06;;;10.19;62.95
16190;BME280;41754;51.498;7.540;2023-02-12T04:55:35;102520.25;;;10.05;64.00
16190;BME280;41754;51.498;7.540;2023-02-12T04:58:03;102514.88;;;10.54;63.00
16190;BME280;41754;51.498;7.540;2023-02-12T05:00:31;102521.97;;;10.99;61.90
16190;BME280;41754;51.498;7.540;2023-02-12T05:02:59;102514.69;;;10.88;61.38
16190;BME280;41754;51.498;7.540;2023-02-12T05:05:28;102512.78;;;10.88;61.58
16190;BME280;41754;51.498;7.540;2023-02-12T05:07:56;102517.78;;;10.91;60.95
16190;BME280;41754;51.498;7.540;2023-02-12T05:10:24;102513.66;;;10.67;61.10
16190;BME280;41754;51.498;7.540;2023-02-12T05:12:52;102513.84;;;10.60;62.48
16190;BME280;41754;51.498;7.540;2023-02-12T05:15:20;102514.88;;;10.54;61.55
16190;BME280;41754;51.498;7.540;2023-02-12T05:17:48;102520.03;;;10.72;61.64
16190;BME280;41754;51.498;7.540;2023-02-12T05:20:16;102519.66;;;10.86;60.88
16190;BME280;41754;51.498;7.540;2023-02-12T05:22:45;102521.66;;;10.68;61.45
16190;BME280;41754;51.498;7.540;2023-02-12T05:25:17;102517.09;;;10.79;60.67
16190;BME280;41754;51.498;7.540;2023-02-12T05:27:45;102515.38;;;11.00;60.86
16190;BME280;41754;51.498;7.540;2023-02-12T05:30:13;102522.06;;;10.55;61.67
16190;BME280;41754;51.498;7.540;2023-02-12T05:32:41;102522.06;;;10.55;61.64
16190;BME280;41754;51.498;7.540;2023-02-12T05:35:08;102526.41;;;11.00;60.49
16190;BME280;41754;51.498;7.540;2023-02-12T05:37:36;102518.50;;;10.81;60.70
16190;BME280;41754;51.498;7.540;2023-02-12T05:40:07;102530.81;;;11.01;59.75
16190;BME280;41754;51.498;7.540;2023-02-12T05:42:35;102524.75;;;10.99;59.98
16190;BME280;41754;51.498;7.540;2023-02-12T05:45:03;102527.59;;;10.82;60.45
16190;BME280;41754;51.498;7.540;2023-02-12T05:47:31;102519.91;;;10.62;60.48
16190;BME280;41754;51.498;7.540;2023-02-12T05:49:59;102530.66;;;10.64;61.36
16190;BME280;41754;51.498;7.540;2023-02-12T05:52:27;102524.81;;;10.77;60.26
16190;BME280;41754;51.498;7.540;2023-02-12T05:54:54;102525.81;;;10.71;60.80
16190;BME280;41754;51.498;7.540;2023-02-12T05:57:24;102521.91;;;10.45;60.76
16190;BME280;41754;51.498;7.540;2023-02-12T05:59:52;102526.03;;;10.64;60.89
16190;BME280;41754;51.498;7.540;2023-02-12T06:02:19;102528.13;;;10.35;61.59
16190;BME280;41754;51.498;7.540;2023-02-12T06:04:47;102523.97;;;10.33;61.40
16190;BME280;41754;51.498;7.540;2023-02-12T06:07:15;102527.00;;;9.98;61.89
16190;BME280;41754;51.498;7.540;2023-02-12T06:09:43;102541.19;;;9.73;62.98
16190;BME280;41754;51.498;7.540;2023-02-12T06:12:11;102535.16;;;10.09;63.02
16190;BME280;41754;51.498;7.540;2023-02-12T06:14:40;102539.34;;;9.95;63.94
16190;BME280;41754;51.498;7.540;2023-02-12T06:17:08;102531.66;;;9.97;62.90
16190;BME280;41754;51.498;7.540;2023-02-12T06:19:36;102535.81;;;10.00;63.20
16190;BME280;41754;51.498;7.540;2023-02-12T06:22:04;102537.41;;;10.29;62.56
16190;BME280;41754;51.498;7.540;2023-02-12T06:24:32;102533.94;;;10.39;61.68
16190;BME280;41754;51.498;7.540;2023-02-12T06:27:00;102542.81;;;10.24;62.47
16190;BME280;41754;51.498;7.540;2023-02-12T06:29:28;102538.28;;;10.35;62.04
16190;BME280;41754;51.498;7.540;2023-02-12T06:31:57;102541.00;;;10.30;61.94
16190;BME280;41754;51.498;7.540;2023-02-12T06:34:25;102546.13;;;10.26;61.89
16190;BME280;41754;51.498;7.540;2023-02-12T06:36:53;102540.03;;;10.41;61.71
16190;BME280;41754;51.498;7.540;2023-02-12T06:39:21;102549.78;;;9.93;62.15
16190;BME280;41754;51.498;7.540;2023-02-12T06:41:49;102543.38;;;9.71;63.19
16190;BME280;41754;51.498;7.540;2023-02-12T06:44:17;102547.28;;;9.91;63.37
16190;BME280;41754;51.498;7.540;2023-02-12T06:46:44;102544.06;;;10.16;62.31
16190;BME280;41754;51.498;7.540;2023-02-12T06:49:14;102547.75;;;9.88;62.48
16190;BME280;41754;51.498;7.540;2023-02-12T06:51:42;102552.44;;;9.88;62.69
16190;BME280;41754;51.498;7.540;2023-02-12T06:54:12;102547.19;;;10.03;62.37
16190;BME280;41754;51.498;7.540;2023-02-12T06:56:40;102556.53;;;9.85;62.67
16190;BME280;41754;51.498;7.540;2023-02-12T06:59:11;102549.59;;;9.83;62.36
16190;BME280;41754;51.498;7.540;2023-02-12T07:01:40;102556.59;;;9.57;64.28
16190;BME280;41754;51.498;7.540;2023-02-12T07:04:08;102560.09;;;9.86;63.58
16190;BME280;41754;51.498;7.540;2023-02-12T07:06:38;102551.47;;;10.33;61.68
16190;BME280;41754;51.498;7.540;2023-02-12T07:09:06;102554.28;;;10.38;61.35
16190;BME280;41754;51.498;7.540;2023-02-12T07:11:36;102561.91;;;10.31;61.58
16190;BME280;41754;51.498;7.540;2023-02-12T07:14:04;102563.25;;;9.94;61.91
16190;BME280;41754;51.498;7.540;2023-02-12T07:16:33;102566.50;;;9.75;62.97
16190;BME280;41754;51.498;7.540;2023-02-12T07:19:01;102570.53;;;9.22;64.34
16190;BME280;41754;51.498;7.540;2023-02-12T07:21:28;102569.00;;;10.27;62.73
16190;BME280;41754;51.498;7.540;2023-02-12T07:23:58;102569.03;;;10.70;60.33
16190;BME280;41754;51.498;7.540;2023-02-12T07:26:26;102574.03;;;10.73;59.76
16190;BME280;41754;51.498;7.540;2023-02-12T07:28:56;102580.84;;;11.15;58.93
16190;BME280;41754;51.498;7.540;2023-02-12T07:31:24;102586.56;;;11.08;58.67
16190;BME280;41754;51.498;7.540;2023-02-12T07:33:53;102589.00;;;10.05;60.27
16190;BME280;41754;51.498;7.540;2023-02-12T07:36:22;102594.13;;;10.96;59.71
16190;BME280;41754;51.498;7.540;2023-02-12T07:38:50;102589.00;;;10.82;59.25
16190;BME280;41754;51.498;7.540;2023-02-12T07:41:20;102593.47;;;10.45;60.72
16190;BME280;41754;51.498;7.540;2023-02-12T07:43:53;102589.41;;;10.69;60.45
16190;BME280;41754;51.498;7.540;2023-02-12T07:46:23;102590.09;;;10.81;60.25
16190;BME280;41754;51.498;7.540;2023-02-12T07:48:55;102595.66;;;10.87;59.54
16190;BME280;41754;51.498;7.540;2023-02-12T07:51:24;102595.78;;;10.97;59.57
16190;BME280;41754;51.498;7.540;2023-02-12T07:53:52;102589.78;;;10.56;60.12
16190;BME280;41754;51.498;7.540;2023-02-12T07:56:23;102599.97;;;10.77;60.08
16190;BME280;41754;51.498;7.540;2023-02-12T07:58:52;102599.31;;;10.70;59.81
16190;BME280;41754;51.498;7.540;2023-02-12T08:01:21;102600.78;;;10.56;60.45
16190;BME280;41754;51.498;7.540;2023-02-12T08:03:50;102608.16;;;11.16;58.71
16190;BME280;41754;51.498;7.540;2023-02-12T08:06:20;102609.97;;;11.05;59.27
16190;BME280;41754;51.498;7.540;2023-02-12T08:08:50;102611.81;;;10.56;59.88
16190;BME280;41754;51.498;7.540;2023-02-12T08:11:18;102611.28;;;10.59;60.75
16190;BME280;41754;51.498;7.540;2023-02-12T08:13:47;102610.69;;;11.23;58.69
16190;BME280;41754;51.498;7.540;2023-02-12T08:16:17;102612.78;;;11.37;58.68
16190;BME280;41754;51.498;7.540;2023-02-12T08:18:45;102617.88;;;11.24;57.87
16190;BME280;41754;51.498;7.540;2023-02-12T08:21:15;102616.63;;;11.36;57.78
16190;BME280;41754;51.498;7.540;2023-02-12T08:23:44;102614.56;;;11.49;57.76
16190;BME280;41754;51.498;7.540;2023-02-12T08:26:17;102615.81;;;11.63;57.03
16190;BME280;41754;51.498;7.540;2023-02-12T08:28:48;102620.31;;;11.74;56.79
16190;BME280;41754;51.498;7.540;2023-02-12T08:31:18;102622.16;;;11.90;56.80
16190;BME280;41754;51.498;7.540;2023-02-12T08:33:48;102620.47;;;11.35;57.36
16190;BME280;41754;51.498;7.540;2023-02-12T08:36:18;102620.81;;;11.39;57.14
16190;BME280;41754;51.498;7.540;2023-02-12T08:38:46;102622.34;;;11.84;56.94
16190;BME280;41754;51.498;7.540;2023-02-12T08:41:16;102619.44;;;11.63;56.45
16190;BME280;41754;51.498;7.540;2023-02-12T08:43:50;102624.34;;;11.61;56.56
16190;BME280;41754;51.498;7.540;2023-02-12T08:46:20;102626.78;;;11.09;57.83
16190;BME280;41754;51.498;7.540;2023-02-12T08:48:51;102631.50;;;11.35;57.63
16190;BME280;41754;51.498;7.540;2023-02-12T08:51:21;102629.44;;;11.75;56.02
16190;BME280;41754;51.498;7.540;2023-02-12T08:53:52;102634.53;;;11.61;55.90
16190;BME280;41754;51.498;7.540;2023-02-12T08:56:21;102629.03;;;11.61;55.88
16190;BME280;41754;51.498;7.540;2023-02-12T08:58:51;102627.22;;;12.04;54.84
16190;BME280;41754;51.498;7.540;2023-02-12T09:01:21;102639.25;;;11.92;55.15
16190;BME280;41754;51.498;7.540;2023-02-12T09:03:50;102648.66;;;11.96;54.40
16190;BME280;41754;51.498;7.540;2023-02-12T09:06:20;102633.78;;;11.97;54.96
16190;BME280;41754;51.498;7.540;2023-02-12T09:08:50;102646.72;;;11.92;54.95
16190;BME280;41754;51.498;7.540;2023-02-12T09:11:21;102640.00;;;12.15;54.81
16190;BME280;41754;51.498;7.540;2023-02-12T09:13:51;102640.13;;;12.35;54.05
16190;BME280;41754;51.498;7.540;2023-02-12T09:16:19;102639.34;;;12.03;54.20
16190;BME280;41754;51.498;7.540;2023-02-12T09:18:47;102638.53;;;12.02;54.53
16190;BME280;41754;51.498;7.540;2023-02-12T09:21:15;102648.50;;;11.76;55.11
16190;BME280;41754;51.498;7.540;2023-02-12T09:23:46;102648.31;;;12.20;53.20
16190;BME280;41754;51.498;7.540;2023-02-12T09:26:15;102643.63;;;12.20;54.20
16190;BME280;41754;51.498;7.540;2023-02-12T09:28:46;102645.31;;;11.62;54.57
16190;BME280;41754;51.498;7.540;2023-02-12T09:31:18;102649.72;;;11.90;54.78
16190;BME280;41754;51.498;7.540;2023-02-12T09:33:48;102647.69;;;12.13;53.96
16190;BME280;41754;51.498;7.540;2023-02-12T09:36:20;102648.59;;;12.23;53.11
16190;BME280;41754;51.498;7.540;2023-02-12T09:38:48;102650.97;;;12.42;52.76
16190;BME280;41754;51.498;7.540;2023-02-12T09:41:30;102649.13;;;12.15;53.86
16190;BME280;41754;51.498;7.540;2023-02-12T09:44:05;102653.72;;;12.05;54.27
16190;BME280;41754;51.498;7.540;2023-02-12T09:46:39;102651.69;;;12.27;53.82
16190;BME280;41754;51.498;7.540;2023-02-12T09:49:15;102654.50;;;12.37;53.15
16190;BME280;41754;51.498;7.540;2023-02-12T09:51:48;102654.63;;;12.57;52.64
16190;BME280;41754;51.498;7.540;2023-02-12T09:54:21;102659.16;;;12.74;52.37
16190;BME280;41754;51.498;7.540;2023-02-12T09:56:52;102656.19;;;12.38;52.66
16190;BME280;41754;51.498;7.540;2023-02-12T09:59:28;102652.25;;;13.34;50.31
16190;BME280;41754;51.498;7.540;2023-02-12T10:01:59;102657.41;;;12.57;50.79
16190;BME280;41754;51.498;7.540;2023-02-12T10:04:27;102661.91;;;12.64;51.08
16190;BME280;41754;51.498;7.540;2023-02-12T10:07:00;102657.72;;;13.13;50.07
16190;BME280;41754;51.498;7.540;2023-02-12T10:09:43;102660.94;;;12.11;51.02
16190;BME280;41754;51.498;7.540;2023-02-12T10:12:20;102656.72;;;13.60;48.64
16190;BME280;41754;51.498;7.540;2023-02-12T10:15:06;102660.47;;;13.13;50.03
16190;BME280;41754;51.498;7.540;2023-02-12T10:17:42;102657.56;;;12.41;51.18
16190;BME280;41754;51.498;7.540;2023-02-12T10:23:24;102658.78;;;13.02;49.84
16190;BME280;41754;51.498;7.540;2023-02-12T10:25:56;102650.97;;;13.97;48.04
16190;BME280;41754;51.498;7.540;2023-02-12T10:28:37;102654.25;;;13.64;47.86
16190;BME280;41754;51.498;7.540;2023-02-12T10:31:10;102652.56;;;13.37;47.33
16190;BME280;41754;51.498;7.540;2023-02-12T10:33:45;102650.06;;;13.46;47.03
16190;BME280;41754;51.498;7.540;2023-02-12T10:36:30;102650.84;;;13.36;48.18
16190;BME280;41754;51.498;7.540;2023-02-12T10:39:05;102656.44;;;13.62;46.69
16190;BME280;41754;51.498;7.540;2023-02-12T10:41:37;102649.03;;;13.72;46.78
16190;BME280;41754;51.498;7.540;2023-02-12T10:44:08;102659.56;;;13.96;45.97
16190;BME280;41754;51.498;7.540;2023-02-12T10:46:36;102648.84;;;13.01;48.06
16190;BME280;41754;51.498;7.540;2023-02-12T10:49:07;102651.09;;;13.14;47.95
16190;BME280;41754;51.498;7.540;2023-02-12T10:51:55;102644.88;;;12.87;49.16
16190;BME280;41754;51.498;7.540;2023-02-12T10:54:37;102650.78;;;13.06;49.05
16190;BME280;41754;51.498;7.540;2023-02-12T10:57:13;102643.34;;;13.22;48.45
16190;BME280;41754;51.498;7.540;2023-02-12T10:59:42;102643.34;;;13.17;47.52
16190;BME280;41754;51.498;7.540;2023-02-12T11:02:18;102643.81;;;12.88;48.02
16190;BME280;41754;51.498;7.540;2023-02-12T11:04:48;102638.59;;;13.02;48.07
16190;BME280;41754;51.498;7.540;2023-02-12T11:07:16;102635.97;;;13.37;48.39
16190;BME280;41754;51.498;7.540;2023-02-12T11:09:46;102643.81;;;12.98;48.00
16190;BME280;41754;51.498;7.540;2023-02-12T11:12:29;102635.09;;;13.27;47.61
16190;BME280;41754;51.498;7.540;2023-02-12T11:14:59;102633.53;;;13.97;46.31
16190;BME280;41754;51.498;7.540;2023-02-12T11:17:33;102625.53;;;14.06;46.79
16190;BME280;41754;51.498;7.540;2023-02-12T11:20:22;102628.28;;;13.80;46.38
16190;BME280;41754;51.498;7.540;2023-02-12T11:22:53;102627.41;;;13.54;47.13
16190;BME280;41754;51.498;7.540;2023-02-12T11:25:23;102630.03;;;13.03;48.52
16190;BME280;41754;51.498;7.540;2023-02-12T11:28:09;102620.72;;;13.25;48.65
16190;BME280;41754;51.498;7.540;2023-02-12T11:30:48;102619.53;;;13.05;48.06
16190;BME280;41754;51.498;7.540;2023-02-12T11:33:23;102619.09;;;13.59;47.80
16190;BME280;41754;51.498;7.540;2023-02-12T11:35:54;102623.38;;;12.99;48.79
16190;BME280;41754;51.498;7.540;2023-02-12T11:38:26;102621.56;;;13.25;48.30
16190;BME280;41754;51.498;7.540;2023-02-12T11:40:58;102623.56;;;13.70;47.41
16190;BME280;41754;51.498;7.540;2023-02-12T11:43:26;102617.44;;;13.43;47.17
16190;BME280;41754;51.498;7.540;2023-02-12T11:45:58;102617.09;;;13.19;48.54
16190;BME280;41754;51.498;7.540;2023-02-12T11:48:30;102614.75;;;12.80;49.23
16190;BME280;41754;51.498;7.540;2023-02-12T11:51:03;102616.50;;;13.02;49.11
16190;BME280;41754;51.498;7.540;2023-02-12T11:53:33;102609.09;;;13.28;48.21
16190;BME280;41754;51.498;7.540;2023-02-12T11:56:04;102616.84;;;13.36;48.40
16190;BME280;41754;51.498;7.540;2023-02-12T11:58:32;102617.38;;;13.23;48.51
16190;BME280;41754;51.498;7.540;2023-02-12T12:01:05;102618.72;;;13.05;48.88
16190;BME280;41754;51.498;7.540;2023-02-12T12:03:40;102610.59;;;12.78;49.41
16190;BME280;41754;51.498;7.540;2023-02-12T12:06:33;102610.63;;;12.88;48.73
16190;BME280;41754;51.498;7.540;2023-02-12T12:09:06;102608.94;;;13.75;47.15
16190;BME280;41754;51.498;7.540;2023-02-12T12:11:42;102599.69;;;13.34;47.58
16190;BME280;41754;51.498;7.540;2023-02-12T12:14:19;102602.47;;;13.34;47.95
16190;BME280;41754;51.498;7.540;2023-02-12T12:16:54;102601.41;;;13.50;47.88
16190;BME280;41754;51.498;7.540;2023-02-12T12:19:45;102589.25;;;13.66;47.52
16190;BME280;41754;51.498;7.540;2023-02-12T12:22:41;102583.59;;;13.05;47.95
16190;BME280;41754;51.498;7.540;2023-02-12T12:25:19;102584.22;;;13.28;48.41
16190;BME280;41754;51.498;7.540;2023-02-12T12:27:57;102584.19;;;13.23;48.13
16190;BME280;41754;51.498;7.540;2023-02-12T12:30:37;102575.13;;;13.42;47.92
16190;BME280;41754;51.498;7.540;2023-02-12T12:33:14;102570.31;;;12.92;49.50
16190;BME280;41754;51.498;7.540;2023-02-12T12:35:52;102569.66;;;12.70;50.01
16190;BME280;41754;51.498;7.540;2023-02-12T12:38:34;102570.59;;;12.91;50.21
16190;BME280;41754;51.498;7.540;2023-02-12T12:41:13;102563.41;;;12.90;49.16
16190;BME280;41754;51.498;7.540;2023-02-12T12:43:56;102566.00;;;13.42;48.50
16190;BME280;41754;51.498;7.540;2023-02-12T12:46:40;102554.91;;;13.47;48.88
16190;BME280;41754;51.498;7.540;2023-02-12T12:52:17;102563.22;;;13.27;48.72
16190;BME280;41754;51.498;7.540;2023-02-12T12:55:02;102552.94;;;13.02;49.77
16190;BME280;41754;51.498;7.540;2023-02-12T12:57:42;102550.91;;;12.82;49.76
16190;BME280;41754;51.498;7.540;2023-02-12T13:00:22;102556.22;;;12.89;49.26
16190;BME280;41754;51.498;7.540;2023-02-12T13:03:17;102551.72;;;12.72;50.39
16190;BME280;41754;51.498;7.540;2023-02-12T13:05:55;102542.88;;;12.23;50.73
16190;BME280;41754;51.498;7.540;2023-02-12T13:08:36;102545.16;;;12.94;50.72
16190;BME280;41754;51.498;7.540;2023-02-12T13:11:15;102542.13;;;12.90;50.03
16190;BME280;41754;51.498;7.540;2023-02-12T13:13:47;102534.03;;;12.68;50.56
16190;BME280;41754;51.498;7.540;2023-02-12T13:16:20;102532.97;;;12.84;49.59
16190;BME280;41754;51.498;7.540;2023-02-12T13:18:54;102530.25;;;13.00;49.89
16190;BME280;41754;51.498;7.540;2023-02-12T13:21:35;102527.81;;;13.49;48.49
16190;BME280;41754;51.498;7.540;2023-02-12T13:24:14;102533.19;;;12.68;49.84